createdAt,value
2022-09-01T00:00:55.049Z,32.97
2022-09-01T00:03:38.466Z,33.83
2022-09-01T00:06:24.233Z,29.37
2022-09-01T00:09:11.422Z,34.93
2022-09-01T00:11:56.118Z,33.17
2022-09-01T00:14:42.132Z,28.57
2022-09-01T00:17:25.278Z,31.07
2022-09-01T00:20:10.132Z,36.50
2022-09-01T00:22:53.226Z,41.40
2022-09-01T00:25:37.181Z,56.27
2022-09-01T00:28:20.452Z,59.97
2022-09-01T00:31:06.499Z,43.43
2022-09-01T00:33:50.706Z,51.23
2022-09-01T00:36:33.870Z,50.47
2022-09-01T00:39:17.360Z,48.63
2022-09-01T00:42:01.183Z,47.90
2022-09-01T00:44:44.289Z,48.40
2022-09-01T00:47:30.798Z,43.87
2022-09-01T00:50:16.307Z,46.27
2022-09-01T00:52:59.775Z,48.13
2022-09-01T00:55:43.321Z,46.97
2022-09-01T00:58:27.221Z,48.97
2022-09-01T01:01:12.405Z,43.67
2022-09-01T01:03:57.729Z,41.67
2022-09-01T01:06:41.018Z,46.33
2022-09-01T01:09:24.311Z,49.20
2022-09-01T01:12:07.975Z,45.37
2022-09-01T01:14:51.879Z,46.47
2022-09-01T01:17:35.096Z,42.43
2022-09-01T01:20:40.357Z,56.70
2022-09-01T01:23:32.257Z,61.27
2022-09-01T01:26:16.739Z,45.10
2022-09-01T01:29:03.173Z,44.47
2022-09-01T01:31:48.235Z,44.27
2022-09-01T01:34:32.069Z,47.20
2022-09-01T01:37:15.355Z,44.33
2022-09-01T01:39:58.485Z,47.07
2022-09-01T01:42:44.309Z,40.93
2022-09-01T01:45:27.386Z,43.30
2022-09-01T01:48:10.867Z,44.30
2022-09-01T01:50:56.030Z,44.07
2022-09-01T01:53:39.841Z,40.67
2022-09-01T01:56:25.655Z,38.97
2022-09-01T01:59:16.593Z,44.77
2022-09-01T02:02:04.021Z,45.10
2022-09-01T02:04:47.302Z,39.30
2022-09-01T02:07:32.997Z,36.43
2022-09-01T02:10:17.150Z,39.10
2022-09-01T02:13:03.704Z,38.83
2022-09-01T02:15:50.761Z,40.17
2022-09-01T02:18:37.231Z,38.90
2022-09-01T02:21:22.717Z,37.37
2022-09-01T02:24:08.593Z,32.40
2022-09-01T02:26:52.363Z,37.80
2022-09-01T02:29:38.624Z,36.53
2022-09-01T02:32:28.851Z,34.17
2022-09-01T02:35:13.585Z,35.37
2022-09-01T02:38:01.071Z,37.23
2022-09-01T02:40:46.974Z,31.13
2022-09-01T02:43:31.729Z,38.83
2022-09-01T02:46:15.594Z,33.37
2022-09-01T02:49:00.825Z,37.10
2022-09-01T02:51:45.809Z,35.23
2022-09-01T02:54:30.058Z,32.23
2022-09-01T02:57:14.002Z,32.43
2022-09-01T02:59:59.059Z,30.10
2022-09-01T03:02:42.210Z,35.20
2022-09-01T03:05:29.823Z,37.57
2022-09-01T03:08:16.517Z,33.70
2022-09-01T03:11:01.560Z,31.87
2022-09-01T03:13:45.188Z,29.77
2022-09-01T03:16:30.509Z,34.90
2022-09-01T03:19:14.562Z,35.50
2022-09-01T03:22:00.310Z,34.20
2022-09-01T03:24:43.491Z,34.73
2022-09-01T03:27:26.804Z,35.07
2022-09-01T03:30:10.817Z,35.80
2022-09-01T03:32:54.623Z,34.80
2022-09-01T03:35:38.171Z,34.30
2022-09-01T03:38:24.620Z,35.97
2022-09-01T03:41:09.423Z,35.17
2022-09-01T03:43:55.133Z,35.13
2022-09-01T03:46:40.487Z,38.90
2022-09-01T03:49:28.807Z,34.23
2022-09-01T03:52:13.594Z,35.93
2022-09-01T03:55:01.027Z,39.80
2022-09-01T03:57:47.605Z,39.80
2022-09-01T04:00:34.998Z,34.97
2022-09-01T04:03:28.283Z,39.30
2022-09-01T04:06:13.036Z,39.27
2022-09-01T04:08:56.929Z,36.57
2022-09-01T04:11:45.767Z,45.27
2022-09-01T04:14:36.592Z,40.07
2022-09-01T04:17:37.152Z,41.43
2022-09-01T04:20:22.557Z,38.30
2022-09-01T04:23:11.088Z,41.57
2022-09-01T04:25:59.995Z,41.40
2022-09-01T04:28:47.421Z,41.67
2022-09-01T04:31:32.018Z,49.00
2022-09-01T04:34:15.397Z,44.70
2022-09-01T04:36:59.018Z,47.27
2022-09-01T04:39:51.261Z,45.80
2022-09-01T04:42:37.682Z,45.30
2022-09-01T04:45:29.090Z,41.37
2022-09-01T04:48:12.389Z,46.17
2022-09-01T04:50:56.732Z,41.70
2022-09-01T04:53:40.885Z,39.47
2022-09-01T04:56:24.515Z,37.00
2022-09-01T04:59:08.327Z,47.20
2022-09-01T05:01:54.401Z,39.77
2022-09-01T05:04:38.542Z,45.03
2022-09-01T05:07:23.743Z,40.57
2022-09-01T05:10:07.840Z,38.33
2022-09-01T05:12:52.494Z,40.03
2022-09-01T05:15:35.832Z,42.90
2022-09-01T05:18:23.503Z,31.60
2022-09-01T05:21:11.236Z,47.87
2022-09-01T05:23:54.482Z,36.03
2022-09-01T05:26:38.622Z,41.30
2022-09-01T05:29:21.818Z,41.70
2022-09-01T05:32:08.971Z,36.13
2022-09-01T05:34:53.763Z,38.17
2022-09-01T05:37:38.665Z,39.93
2022-09-01T05:40:22.128Z,41.50
2022-09-01T05:43:05.334Z,38.03
2022-09-01T05:46:05.668Z,40.57
2022-09-01T05:48:52.574Z,43.27
2022-09-01T05:51:46.476Z,46.40
2022-09-01T05:54:34.113Z,51.57
2022-09-01T05:57:33.901Z,48.20
2022-09-01T06:00:18.185Z,54.83
2022-09-01T06:03:02.998Z,68.53
2022-09-01T06:05:48.445Z,73.70
2022-09-01T06:08:33.028Z,64.60
2022-09-01T06:11:17.765Z,57.83
2022-09-01T06:14:01.430Z,58.63
2022-09-01T06:16:47.405Z,56.03
2022-09-01T06:19:34.807Z,59.30
2022-09-01T06:22:20.742Z,67.57
2022-09-01T06:25:06.800Z,65.13
2022-09-01T06:27:50.165Z,61.73
2022-09-01T06:30:36.519Z,61.33
2022-09-01T06:33:21.231Z,72.23
2022-09-01T06:36:05.483Z,76.33
2022-09-01T06:38:48.728Z,67.53
2022-09-01T06:41:33.304Z,66.77
2022-09-01T06:44:22.676Z,68.03
2022-09-01T06:47:06.203Z,74.60
2022-09-01T06:49:53.617Z,77.33
2022-09-01T06:55:49.270Z,68.50
2022-09-01T06:58:35.132Z,74.73
2022-09-01T07:01:20.520Z,62.50
2022-09-01T07:04:04.101Z,78.13
2022-09-01T07:07:00.221Z,74.60
2022-09-01T07:09:49.935Z,72.97
2022-09-01T07:19:01.386Z,83.53
2022-09-01T07:22:06.650Z,82.63
2022-09-01T07:25:11.481Z,83.10
2022-09-01T07:27:51.795Z,79.33
2022-09-01T07:30:43.470Z,70.40
2022-09-01T07:33:49.087Z,67.50
2022-09-01T07:37:15.156Z,68.53
2022-09-01T07:39:52.587Z,63.30
2022-09-01T07:45:58.305Z,61.63
2022-09-01T07:51:51.858Z,50.23
2022-09-01T07:54:37.435Z,42.87
2022-09-01T07:57:23.042Z,51.43
2022-09-01T08:00:08.498Z,46.90
2022-09-01T08:02:57.130Z,41.40
2022-09-01T08:05:41.886Z,41.70
2022-09-01T08:08:29.036Z,42.20
2022-09-01T08:11:21.912Z,46.30
2022-09-01T08:14:12.831Z,36.30
2022-09-01T08:16:56.716Z,38.20
2022-09-01T08:19:41.352Z,42.50
2022-09-01T08:22:26.065Z,41.43
2022-09-01T08:25:11.095Z,39.87
2022-09-01T08:27:59.686Z,35.10
2022-09-01T08:30:47.166Z,36.93
2022-09-01T08:33:35.843Z,37.03
2022-09-01T08:36:23.706Z,38.13
2022-09-01T08:39:09.619Z,26.80
2022-09-01T08:42:04.238Z,33.10
2022-09-01T08:44:57.827Z,34.13
2022-09-01T08:48:04.777Z,27.37
2022-09-01T08:50:51.154Z,34.10
2022-09-01T08:53:40.019Z,31.67
2022-09-01T08:56:25.056Z,32.13
2022-09-01T08:59:10.859Z,26.50
2022-09-01T09:02:02.421Z,23.50
2022-09-01T09:05:01.616Z,22.70
2022-09-01T09:08:07.266Z,27.23
2022-09-01T09:10:59.935Z,26.87
2022-09-01T09:13:59.256Z,28.70
2022-09-01T09:16:43.857Z,24.83
2022-09-01T09:19:30.642Z,30.43
2022-09-01T09:22:16.779Z,25.60
2022-09-01T09:25:08.277Z,30.40
2022-09-01T09:28:00.544Z,27.33
2022-09-01T09:30:45.834Z,29.57
2022-09-01T09:33:51.181Z,29.27
2022-09-01T09:36:36.662Z,27.57
2022-09-01T09:39:20.211Z,28.67
2022-09-01T09:42:09.136Z,33.80
2022-09-01T09:44:53.116Z,35.43
2022-09-01T09:47:44.622Z,34.33
2022-09-01T09:50:30.507Z,26.17
2022-09-01T09:53:19.953Z,30.13
2022-09-01T09:56:10.562Z,31.43
2022-09-01T09:58:54.686Z,37.83
2022-09-01T10:01:38.102Z,34.87
2022-09-01T10:04:39.898Z,29.53
2022-09-01T10:07:33.598Z,27.10
2022-09-01T10:10:30.543Z,27.80
2022-09-01T10:13:17.819Z,43.63
2022-09-01T10:16:03.736Z,30.77
2022-09-01T10:18:51.348Z,31.37
2022-09-01T10:21:39.162Z,31.80
2022-09-01T10:24:30.986Z,27.27
2022-09-01T10:27:19.939Z,39.50
2022-09-01T10:30:12.642Z,32.93
2022-09-01T10:33:11.686Z,35.23
2022-09-01T10:36:02.449Z,26.27
2022-09-01T10:38:53.668Z,30.30
2022-09-01T10:41:53.264Z,31.67
2022-09-01T10:44:58.100Z,31.53
2022-09-01T10:47:41.367Z,33.40
2022-09-01T10:50:29.496Z,32.37
2022-09-01T10:53:38.961Z,34.20
2022-09-01T10:56:43.669Z,40.43
2022-09-01T10:59:31.509Z,29.20
2022-09-01T11:05:20.585Z,32.50
2022-09-01T11:08:26.137Z,34.53
2022-09-01T11:11:24.074Z,34.80
2022-09-01T11:14:20.027Z,34.60
2022-09-01T11:17:17.403Z,41.47
2022-09-01T11:20:11.200Z,36.37
2022-09-01T11:23:03.497Z,32.10
2022-09-01T11:26:18.581Z,24.13
2022-09-01T11:28:51.842Z,30.43
2022-09-01T11:31:43.238Z,28.97
2022-09-01T11:34:28.523Z,26.10
2022-09-01T11:37:17.537Z,33.80
2022-09-01T11:40:03.899Z,30.90
2022-09-01T11:42:48.490Z,37.77
2022-09-01T11:45:34.811Z,33.83
2022-09-01T11:48:19.575Z,24.60
2022-09-01T11:51:05.355Z,27.03
2022-09-01T11:53:51.659Z,25.20
2022-09-01T11:56:35.162Z,27.57
2022-09-01T11:59:32.639Z,24.90
2022-09-01T12:02:21.304Z,29.37
2022-09-01T12:05:26.793Z,34.20
2022-09-01T12:08:15.204Z,34.33
2022-09-01T12:11:05.737Z,35.87
2022-09-01T12:13:57.577Z,36.87
2022-09-01T12:16:43.227Z,33.87
2022-09-01T12:19:28.767Z,42.17
2022-09-01T12:22:19.793Z,28.80
2022-09-01T12:25:03.029Z,30.03
2022-09-01T12:27:46.255Z,25.87
2022-09-01T12:30:29.951Z,36.10
2022-09-01T12:33:23.615Z,37.37
2022-09-01T12:36:32.186Z,30.63
2022-09-01T12:39:24.180Z,27.30
2022-09-01T12:42:12.923Z,26.37
2022-09-01T12:44:58.775Z,28.07
2022-09-01T12:47:51.751Z,29.97
2022-09-01T12:50:47.022Z,25.10
2022-09-01T12:53:36.603Z,29.53
2022-09-01T12:56:33.060Z,32.87
2022-09-01T12:59:33.662Z,26.33
2022-09-01T13:02:35.146Z,30.00
2022-09-01T13:05:41.894Z,34.23
2022-09-01T13:08:28.475Z,36.43
2022-09-01T13:11:21.839Z,32.83
2022-09-01T13:14:06.659Z,26.57
2022-09-01T13:16:49.797Z,31.93
2022-09-01T13:19:33.231Z,33.47
2022-09-01T13:22:16.349Z,37.77
2022-09-01T13:25:00.351Z,28.37
2022-09-01T13:27:44.526Z,30.10
2022-09-01T13:30:30.055Z,31.80
2022-09-01T13:33:21.015Z,31.53
2022-09-01T13:36:42.964Z,31.63
2022-09-01T13:39:12.132Z,31.03
2022-09-01T13:41:55.343Z,35.90
2022-09-01T13:44:38.461Z,38.47
2022-09-01T13:47:31.868Z,36.70
2022-09-01T13:50:23.720Z,40.53
2022-09-01T13:53:08.274Z,29.03
2022-09-01T13:55:51.644Z,32.93
2022-09-01T13:58:34.800Z,29.20
2022-09-01T14:01:17.987Z,40.13
2022-09-01T14:04:06.139Z,37.20
2022-09-01T14:06:49.300Z,35.93
2022-09-01T14:09:32.453Z,32.17
2022-09-01T14:12:15.561Z,35.60
2022-09-01T14:15:17.590Z,29.70
2022-09-01T14:18:02.392Z,30.63
2022-09-01T14:20:51.057Z,29.83
2022-09-01T14:23:34.178Z,29.80
2022-09-01T14:26:18.053Z,33.70
2022-09-01T14:29:01.972Z,30.30
2022-09-01T14:31:45.293Z,30.20
2022-09-01T14:34:28.394Z,33.97
2022-09-01T14:37:12.876Z,31.37
2022-09-01T14:39:58.726Z,34.27
2022-09-01T14:42:43.824Z,33.67
2022-09-01T14:45:29.070Z,35.73
2022-09-01T14:48:12.625Z,33.40
2022-09-01T14:50:55.732Z,34.10
2022-09-01T14:53:40.658Z,30.97
2022-09-01T14:56:24.959Z,31.03
2022-09-01T14:59:09.042Z,30.57
2022-09-01T15:01:52.730Z,30.37
2022-09-01T15:04:36.190Z,31.37
2022-09-01T15:07:19.582Z,31.60
2022-09-01T15:10:04.282Z,31.47
2022-09-01T15:12:47.382Z,48.07
2022-09-01T15:15:31.430Z,29.43
2022-09-01T15:18:14.659Z,35.73
2022-09-01T15:20:57.890Z,35.93
2022-09-01T15:23:41.006Z,33.00
2022-09-01T15:26:25.499Z,35.80
2022-09-01T15:29:13.268Z,29.53
2022-09-01T15:31:56.642Z,28.97
2022-09-01T15:34:40.219Z,37.47
2022-09-01T15:37:23.350Z,31.37
2022-09-01T15:40:09.016Z,34.13
2022-09-01T15:42:54.819Z,31.87
2022-09-01T15:45:39.105Z,34.47
2022-09-01T15:48:22.176Z,31.77
2022-09-01T15:51:29.508Z,35.53
2022-09-01T15:54:16.618Z,35.07
2022-09-01T15:56:59.710Z,30.87
2022-09-01T15:59:45.482Z,34.67
2022-09-01T16:02:28.651Z,33.90
2022-09-01T16:05:12.542Z,29.93
2022-09-01T16:10:44.100Z,30.23
2022-09-01T16:13:27.946Z,28.90
2022-09-01T16:16:30.968Z,31.33
2022-09-01T16:19:25.072Z,31.73
2022-09-01T16:22:17.661Z,42.73
2022-09-01T16:25:02.960Z,33.17
2022-09-01T16:27:46.941Z,34.63
2022-09-01T16:30:30.963Z,32.63
2022-09-01T16:33:20.099Z,29.47
2022-09-01T16:36:17.879Z,43.60
2022-09-01T16:39:08.750Z,32.50
2022-09-01T16:42:01.472Z,38.53
2022-09-01T16:44:57.891Z,40.37
2022-09-01T16:47:59.252Z,42.07
2022-09-01T16:50:52.876Z,37.63
2022-09-01T16:54:02.557Z,39.43
2022-09-01T16:56:54.227Z,38.73
2022-09-01T16:59:51.857Z,45.77
2022-09-01T17:02:51.206Z,40.40
2022-09-01T17:05:41.165Z,46.87
2022-09-01T17:08:31.644Z,47.93
2022-09-01T17:11:23.617Z,43.47
2022-09-01T17:14:09.918Z,51.37
2022-09-01T17:16:57.778Z,59.30
2022-09-01T17:19:43.218Z,45.07
2022-09-01T17:22:27.116Z,41.47
2022-09-01T17:25:24.362Z,41.10
2022-09-01T17:28:11.581Z,43.33
2022-09-01T17:31:04.322Z,43.53
2022-09-01T17:34:03.174Z,40.47
2022-09-01T17:36:58.355Z,42.70
2022-09-01T17:39:51.024Z,35.37
2022-09-01T17:42:43.461Z,39.13
2022-09-01T17:45:31.668Z,37.07
2022-09-01T17:48:20.787Z,35.03
2022-09-01T17:51:11.392Z,38.37
2022-09-01T17:54:05.575Z,42.03
2022-09-01T17:56:54.814Z,35.00
2022-09-01T17:59:48.683Z,31.83
2022-09-01T18:02:51.423Z,36.27
2022-09-01T18:05:41.915Z,38.20
2022-09-01T18:08:40.280Z,36.40
2022-09-01T18:11:33.660Z,35.27
2022-09-01T18:14:19.289Z,39.70
2022-09-01T18:17:09.757Z,42.63
2022-09-01T18:19:58.571Z,38.87
2022-09-01T18:22:48.252Z,35.90
2022-09-01T18:25:38.954Z,31.50
2022-09-01T18:28:22.257Z,35.43
2022-09-01T18:31:21.427Z,43.93
2022-09-01T18:34:15.133Z,36.20
2022-09-01T18:37:02.986Z,37.97
2022-09-01T18:39:54.501Z,42.40
2022-09-01T18:42:43.813Z,35.17
2022-09-01T18:45:39.784Z,35.13
2022-09-01T18:51:32.453Z,30.87
2022-09-01T18:54:19.800Z,35.33
2022-09-01T18:57:04.813Z,37.90
2022-09-01T19:00:16.890Z,37.10
2022-09-01T19:03:14.980Z,38.40
2022-09-01T19:06:30.736Z,37.20
2022-09-01T19:09:22.226Z,37.83
2022-09-01T19:12:17.041Z,37.63
2022-09-01T19:15:10.165Z,36.43
2022-09-01T19:18:14.611Z,40.03
2022-09-01T19:21:07.723Z,45.63
2022-09-01T19:24:00.607Z,38.63
2022-09-01T19:26:50.406Z,46.57
2022-09-01T19:29:39.983Z,38.80
2022-09-01T19:32:27.121Z,45.87
2022-09-01T19:35:13.771Z,36.40
2022-09-01T19:37:56.955Z,39.63
2022-09-01T19:40:46.369Z,33.33
2022-09-01T19:43:36.435Z,37.13
2022-09-01T19:46:27.097Z,32.47
2022-09-01T19:49:18.994Z,33.63
2022-09-01T19:52:10.748Z,35.77
2022-09-01T19:55:00.977Z,34.57
2022-09-01T19:57:52.023Z,41.80
2022-09-01T20:00:53.539Z,38.43
2022-09-01T20:03:40.540Z,37.40
2022-09-01T20:06:33.624Z,37.87
2022-09-01T20:09:21.202Z,39.27
2022-09-01T20:12:16.217Z,36.77
2022-09-01T20:15:08.372Z,38.63
2022-09-01T20:17:57.119Z,42.00
2022-09-01T20:20:46.397Z,37.27
2022-09-01T20:23:33.961Z,35.27
2022-09-01T20:26:22.297Z,34.37
2022-09-01T20:29:11.985Z,40.13
2022-09-01T20:31:59.930Z,37.47
2022-09-01T20:34:47.193Z,41.80
2022-09-01T20:37:35.653Z,37.97
2022-09-01T20:40:24.824Z,34.97
2022-09-01T20:43:18.601Z,38.87
2022-09-01T20:46:01.776Z,35.10
2022-09-01T20:48:46.873Z,37.90
2022-09-01T20:51:39.414Z,39.20
2022-09-01T20:54:33.191Z,43.17
2022-09-01T20:57:30.433Z,46.80
2022-09-01T21:00:19.176Z,36.03
2022-09-01T21:03:12.131Z,38.77
2022-09-01T21:06:01.232Z,41.63
2022-09-01T21:08:50.102Z,38.17
2022-09-01T21:11:42.394Z,37.00
2022-09-01T21:14:38.850Z,49.13
2022-09-01T21:17:31.733Z,39.87
2022-09-01T21:20:23.137Z,38.60
2022-09-01T21:23:07.634Z,43.07
2022-09-01T21:25:50.987Z,36.63
2022-09-01T21:28:35.354Z,41.63
2022-09-01T21:31:19.426Z,34.67
2022-09-01T21:34:02.614Z,36.13
2022-09-01T21:36:45.732Z,40.20
2022-09-01T21:39:30.325Z,35.57
2022-09-01T21:42:14.828Z,37.83
2022-09-01T21:44:59.871Z,36.67
2022-09-01T21:47:49.372Z,39.50
2022-09-01T21:50:32.606Z,41.53
2022-09-01T21:53:16.065Z,35.50
2022-09-01T21:56:01.300Z,31.10
2022-09-01T21:58:44.540Z,33.80
2022-09-01T22:01:36.369Z,41.77
2022-09-01T22:04:19.694Z,34.63
2022-09-01T22:07:02.979Z,33.43
2022-09-01T22:09:47.624Z,32.00
2022-09-01T22:12:32.370Z,36.23
2022-09-01T22:15:19.387Z,34.27
2022-09-01T22:18:02.633Z,36.37
2022-09-01T22:20:46.573Z,33.57
2022-09-01T22:23:29.926Z,28.67
2022-09-01T22:26:21.338Z,35.07
2022-09-01T22:29:08.347Z,35.70
2022-09-01T22:31:51.547Z,32.87
2022-09-01T22:34:35.060Z,34.53
2022-09-01T22:37:18.914Z,37.67
2022-09-01T22:40:02.363Z,40.47
2022-09-01T22:42:46.088Z,35.77
2022-09-01T22:45:31.536Z,36.47
2022-09-01T22:48:15.509Z,36.40
2022-09-01T22:50:58.775Z,36.03
2022-09-01T22:53:44.671Z,36.57
2022-09-01T22:56:29.502Z,40.13
2022-09-01T22:59:15.429Z,33.43
2022-09-01T23:02:02.016Z,33.30
2022-09-01T23:04:46.719Z,34.47
2022-09-01T23:07:30.025Z,37.83
2022-09-01T23:10:13.335Z,35.33
2022-09-01T23:12:56.776Z,39.67
2022-09-01T23:15:39.917Z,31.33
2022-09-01T23:18:24.922Z,37.73
2022-09-01T23:21:09.193Z,36.43
2022-09-01T23:23:58.475Z,34.10
2022-09-01T23:26:42.060Z,32.23
2022-09-01T23:29:25.788Z,43.73
2022-09-01T23:32:09.008Z,34.57
2022-09-01T23:34:53.679Z,35.63
2022-09-01T23:37:36.819Z,41.97
2022-09-01T23:40:20.361Z,35.57
2022-09-01T23:43:03.573Z,34.17
2022-09-01T23:45:48.866Z,37.27
2022-09-01T23:48:32.253Z,33.47
2022-09-01T23:51:18.197Z,32.77
2022-09-01T23:54:02.165Z,39.00
2022-09-01T23:56:47.025Z,39.30
2022-09-01T23:59:30.355Z,34.27
